createdAt,value
2023-05-12T00:02:00.293Z,7.28
2023-05-12T00:04:28.123Z,8.18
2023-05-12T00:06:56.531Z,7.72
2023-05-12T00:09:24.343Z,8.45
2023-05-12T00:11:52.510Z,9.48
2023-05-12T00:14:20.318Z,8.13
2023-05-12T00:16:51.902Z,8.82
2023-05-12T00:19:20.421Z,8.00
2023-05-12T00:21:48.203Z,9.77
2023-05-12T00:24:16.699Z,8.60
2023-05-12T00:26:44.231Z,6.80
2023-05-12T00:29:12.327Z,9.57
2023-05-12T00:31:40.069Z,8.95
2023-05-12T00:34:07.558Z,7.93
2023-05-12T00:36:35.238Z,8.10
2023-05-12T00:39:03.660Z,11.52
2023-05-12T00:41:31.180Z,6.45
2023-05-12T00:43:58.856Z,8.45
2023-05-12T00:46:27.527Z,11.68
2023-05-12T00:48:55.411Z,8.52
2023-05-12T00:51:24.384Z,8.77
2023-05-12T00:53:53.528Z,7.88
2023-05-12T00:56:21.972Z,10.52
2023-05-12T00:58:49.759Z,8.90
2023-05-12T01:01:18.431Z,8.98
2023-05-12T01:03:56.304Z,7.82
2023-05-12T01:06:33.008Z,14.85
2023-05-12T01:09:01.315Z,16.45
2023-05-12T01:11:29.100Z,10.65
2023-05-12T01:13:56.728Z,9.15
2023-05-12T01:16:36.062Z,12.70
2023-05-12T01:19:07.485Z,10.75
2023-05-12T01:21:36.988Z,10.55
2023-05-12T01:24:08.633Z,10.95
2023-05-12T01:26:37.835Z,11.63
2023-05-12T01:29:06.151Z,14.93
2023-05-12T01:31:34.587Z,13.57
2023-05-12T01:34:02.531Z,10.13
2023-05-12T01:36:31.589Z,11.05
2023-05-12T01:38:59.415Z,13.20
2023-05-12T01:41:27.335Z,10.32
2023-05-12T01:43:55.168Z,9.45
2023-05-12T01:46:22.911Z,11.27
2023-05-12T01:48:51.041Z,12.73
2023-05-12T01:51:19.013Z,14.80
2023-05-12T01:53:46.764Z,18.92
2023-05-12T01:56:14.750Z,20.73
2023-05-12T01:58:42.423Z,21.58
2023-05-12T02:01:10.430Z,25.88
2023-05-12T02:03:38.137Z,24.63
2023-05-12T02:06:11.554Z,24.35
2023-05-12T02:08:39.761Z,33.22
2023-05-12T02:11:09.766Z,32.85
2023-05-12T02:13:38.256Z,35.70
2023-05-12T02:16:06.625Z,33.40
2023-05-12T02:18:34.474Z,33.78
2023-05-12T02:21:02.359Z,33.90
2023-05-12T02:23:30.358Z,37.20
2023-05-12T02:25:57.831Z,47.20
2023-05-12T02:28:25.364Z,48.40
2023-05-12T02:30:54.369Z,43.00
2023-05-12T02:33:23.163Z,47.75
2023-05-12T02:35:51.150Z,45.22
2023-05-12T02:38:19.967Z,51.92
2023-05-12T02:40:47.936Z,55.83
2023-05-12T02:43:16.371Z,52.08
2023-05-12T02:45:44.321Z,53.45
2023-05-12T02:48:12.105Z,54.17
2023-05-12T02:50:39.772Z,64.07
2023-05-12T02:53:07.476Z,67.45
2023-05-12T02:55:35.248Z,61.28
2023-05-12T02:58:02.802Z,71.50
2023-05-12T03:00:30.321Z,64.07
2023-05-12T03:02:58.364Z,67.65
2023-05-12T03:05:26.016Z,85.20
2023-05-12T03:07:53.839Z,67.82
2023-05-12T03:10:21.738Z,66.05
2023-05-12T03:12:49.300Z,55.65
2023-05-12T03:15:16.910Z,59.13
2023-05-12T03:17:44.702Z,50.83
2023-05-12T03:20:12.557Z,52.53
2023-05-12T03:22:40.006Z,39.67
2023-05-12T03:25:10.323Z,43.33
2023-05-12T03:27:38.204Z,39.58
2023-05-12T03:30:06.982Z,43.65
2023-05-12T03:35:09.199Z,38.53
2023-05-12T03:37:37.444Z,46.47
2023-05-12T03:40:06.387Z,46.38
2023-05-12T03:42:33.882Z,43.92
2023-05-12T03:45:01.373Z,41.03
2023-05-12T03:47:29.389Z,44.53
2023-05-12T03:49:58.386Z,44.42
2023-05-12T03:52:26.161Z,48.08
2023-05-12T03:54:53.832Z,47.22
2023-05-12T03:57:21.565Z,46.92
2023-05-12T03:59:49.210Z,47.15
2023-05-12T04:02:17.076Z,44.47
2023-05-12T04:04:44.764Z,50.20
2023-05-12T04:07:12.358Z,51.97
2023-05-12T04:09:39.971Z,46.28
2023-05-12T04:12:07.934Z,53.08
2023-05-12T04:14:42.922Z,52.25
2023-05-12T04:17:11.169Z,49.65
2023-05-12T04:19:38.688Z,46.00
2023-05-12T04:22:06.455Z,51.47
2023-05-12T04:24:34.139Z,43.05
2023-05-12T04:27:01.783Z,49.55
2023-05-12T04:29:29.413Z,45.22
2023-05-12T04:31:57.273Z,47.88
2023-05-12T04:34:25.088Z,42.97
2023-05-12T04:36:53.123Z,43.95
2023-05-12T04:39:21.356Z,47.88
2023-05-12T04:41:49.820Z,41.17
2023-05-12T04:44:17.580Z,40.53
2023-05-12T04:46:45.841Z,38.50
2023-05-12T04:49:13.471Z,34.00
2023-05-12T04:51:42.936Z,35.67
2023-05-12T04:54:11.442Z,31.95
2023-05-12T04:56:39.526Z,26.73
2023-05-12T04:59:08.236Z,22.40
2023-05-12T05:01:35.844Z,23.98
2023-05-12T05:04:03.336Z,19.05
2023-05-12T05:06:31.653Z,22.92
2023-05-12T05:09:00.413Z,19.77
2023-05-12T05:11:28.111Z,19.10
2023-05-12T05:13:55.641Z,23.55
2023-05-12T05:16:24.739Z,19.55
2023-05-12T05:18:53.039Z,23.00
2023-05-12T05:21:21.004Z,24.60
2023-05-12T05:23:48.387Z,27.27
2023-05-12T05:26:16.447Z,25.73
2023-05-12T05:28:44.116Z,24.85
2023-05-12T05:31:17.006Z,26.98
2023-05-12T05:33:45.142Z,22.88
2023-05-12T05:36:13.828Z,26.08
2023-05-12T05:38:41.580Z,28.08
2023-05-12T05:41:09.700Z,27.33
2023-05-12T05:43:37.532Z,27.85
2023-05-12T05:46:05.215Z,25.88
2023-05-12T05:48:32.891Z,29.13
2023-05-12T05:51:00.855Z,29.83
2023-05-12T05:53:29.150Z,25.88
2023-05-12T05:55:56.624Z,25.42
2023-05-12T05:58:24.451Z,27.38
2023-05-12T06:00:52.739Z,28.05
2023-05-12T06:03:20.271Z,26.17
2023-05-12T06:05:48.748Z,34.42
2023-05-12T06:08:16.826Z,32.10
2023-05-12T06:10:44.213Z,29.67
2023-05-12T06:13:12.005Z,29.60
2023-05-12T06:15:39.485Z,30.80
2023-05-12T06:18:08.187Z,26.88
2023-05-12T06:20:35.660Z,30.65
2023-05-12T06:23:03.678Z,25.75
2023-05-12T06:25:33.286Z,30.55
2023-05-12T06:28:01.695Z,27.98
2023-05-12T06:30:29.496Z,29.55
2023-05-12T06:32:57.170Z,27.75
2023-05-12T06:35:24.602Z,26.42
2023-05-12T06:37:52.447Z,27.55
2023-05-12T06:40:19.912Z,30.15
2023-05-12T06:42:47.627Z,26.42
2023-05-12T06:45:20.908Z,23.77
2023-05-12T06:47:48.889Z,24.00
2023-05-12T06:50:19.166Z,26.70
2023-05-12T06:52:51.726Z,28.13
2023-05-12T06:55:21.114Z,22.83
2023-05-12T06:57:51.514Z,18.77
2023-05-12T07:00:19.209Z,17.77
2023-05-12T07:02:46.793Z,22.98
2023-05-12T07:05:14.428Z,20.55
2023-05-12T07:07:42.043Z,19.85
2023-05-12T07:10:09.645Z,17.23
2023-05-12T07:12:38.242Z,14.98
2023-05-12T07:15:06.598Z,17.05
2023-05-12T07:17:34.691Z,13.38
2023-05-12T07:20:02.420Z,16.38
2023-05-12T07:22:29.923Z,15.88
2023-05-12T07:24:57.385Z,17.17
2023-05-12T07:27:24.871Z,16.85
2023-05-12T07:29:52.346Z,17.30
2023-05-12T07:32:19.795Z,16.33
2023-05-12T07:34:47.140Z,13.10
2023-05-12T07:37:14.661Z,13.07
2023-05-12T07:39:42.062Z,13.77
2023-05-12T07:42:09.599Z,14.10
2023-05-12T07:44:37.010Z,16.17
2023-05-12T07:47:05.523Z,9.95
2023-05-12T07:49:33.446Z,14.00
2023-05-12T07:52:01.470Z,12.25
2023-05-12T07:54:28.858Z,13.77
2023-05-12T07:56:56.278Z,14.63
2023-05-12T07:59:24.424Z,12.88
2023-05-12T08:01:51.923Z,10.82
2023-05-12T08:04:19.356Z,13.25
2023-05-12T08:06:46.781Z,11.57
2023-05-12T08:09:14.208Z,10.93
2023-05-12T08:11:44.044Z,9.32
2023-05-12T08:14:13.875Z,11.23
2023-05-12T08:16:42.622Z,9.75
2023-05-12T08:19:10.209Z,8.63
2023-05-12T08:21:37.692Z,7.53
2023-05-12T08:24:05.144Z,7.82
2023-05-12T08:26:32.523Z,10.88
2023-05-12T08:29:00.153Z,10.75
2023-05-12T08:31:27.908Z,8.70
2023-05-12T08:34:08.912Z,7.13
2023-05-12T08:36:39.143Z,7.63
2023-05-12T08:39:07.798Z,6.07
2023-05-12T08:42:21.330Z,6.45
2023-05-12T08:44:49.233Z,10.10
2023-05-12T08:47:18.917Z,9.13
2023-05-12T08:49:54.614Z,9.73
2023-05-12T08:52:22.666Z,6.95
2023-05-12T08:54:55.864Z,9.00
2023-05-12T08:57:24.897Z,9.13
2023-05-12T08:59:57.442Z,7.70
2023-05-12T09:02:25.952Z,10.70
2023-05-12T09:04:55.165Z,5.47
2023-05-12T09:07:26.685Z,8.20
2023-05-12T09:09:59.843Z,6.95
2023-05-12T09:12:31.850Z,7.13
2023-05-12T09:15:05.135Z,9.98
2023-05-12T09:17:34.714Z,7.40
2023-05-12T09:20:04.260Z,7.25
2023-05-12T09:22:35.038Z,7.10
2023-05-12T09:25:21.801Z,7.80
2023-05-12T09:27:56.627Z,8.07
2023-05-12T09:30:32.275Z,6.28
2023-05-12T09:33:11.031Z,10.10
2023-05-12T09:35:43.460Z,5.30
2023-05-12T09:38:14.391Z,4.82
2023-05-12T09:40:43.262Z,4.47
2023-05-12T09:43:13.617Z,6.22
2023-05-12T09:45:44.141Z,7.47
2023-05-12T09:48:14.183Z,4.85
2023-05-12T09:50:50.401Z,7.00
2023-05-12T09:53:19.675Z,4.88
2023-05-12T09:55:47.990Z,7.15
2023-05-12T09:58:18.898Z,4.47
2023-05-12T10:03:18.745Z,4.25
2023-05-12T10:05:54.331Z,14.68
2023-05-12T10:08:45.235Z,8.55
2023-05-12T10:11:12.968Z,10.70
2023-05-12T10:13:40.840Z,8.75
2023-05-12T10:16:09.651Z,5.53
2023-05-12T10:18:38.321Z,5.90
2023-05-12T10:21:06.958Z,6.85
2023-05-12T10:23:38.060Z,11.23
2023-05-12T10:26:07.405Z,6.05
2023-05-12T10:28:35.080Z,8.27
2023-05-12T10:31:05.911Z,9.07
2023-05-12T10:33:33.938Z,6.72
2023-05-12T10:36:01.582Z,5.93
2023-05-12T10:38:36.693Z,6.57
2023-05-12T10:41:06.645Z,6.03
2023-05-12T10:43:46.782Z,7.55
2023-05-12T10:46:21.003Z,6.70
2023-05-12T10:49:03.417Z,4.40
2023-05-12T10:51:46.067Z,5.82
2023-05-12T10:54:24.162Z,5.47
2023-05-12T10:56:52.715Z,3.67
2023-05-12T10:59:24.315Z,4.30
2023-05-12T11:02:16.862Z,9.13
2023-05-12T11:04:50.321Z,5.13
2023-05-12T11:07:26.649Z,4.72
2023-05-12T11:09:58.305Z,5.28
2023-05-12T11:12:29.139Z,7.65
2023-05-12T11:14:58.895Z,7.07
2023-05-12T11:17:26.502Z,3.70
2023-05-12T11:19:55.662Z,10.35
2023-05-12T11:22:24.161Z,8.07
2023-05-12T11:24:53.488Z,7.05
2023-05-12T11:27:23.349Z,8.75
2023-05-12T11:30:02.627Z,6.10
2023-05-12T11:32:32.771Z,6.25
2023-05-12T11:35:18.252Z,6.22
2023-05-12T11:37:46.439Z,4.63
2023-05-12T11:40:14.831Z,4.18
2023-05-12T11:42:46.134Z,5.57
2023-05-12T11:45:25.037Z,5.85
2023-05-12T11:47:53.749Z,4.93
2023-05-12T11:50:25.178Z,5.47
2023-05-12T11:52:53.272Z,5.00
2023-05-12T11:55:23.371Z,3.78
2023-05-12T11:58:04.305Z,3.27
2023-05-12T12:03:12.136Z,5.65
2023-05-12T12:05:57.177Z,4.00
2023-05-12T12:08:24.629Z,3.42
2023-05-12T12:10:52.269Z,4.10
2023-05-12T12:13:21.755Z,4.90
2023-05-12T12:15:50.346Z,3.22
2023-05-12T12:18:19.150Z,5.82
2023-05-12T12:20:47.134Z,4.55
2023-05-12T12:23:14.731Z,4.40
2023-05-12T12:25:42.062Z,3.50
2023-05-12T12:28:09.411Z,4.90
2023-05-12T12:30:37.451Z,5.15
2023-05-12T12:33:05.226Z,4.72
2023-05-12T12:35:32.773Z,4.88
2023-05-12T12:38:00.459Z,5.97
2023-05-12T12:40:28.198Z,7.07
2023-05-12T12:42:56.028Z,4.18
2023-05-12T12:45:23.718Z,6.30
2023-05-12T12:47:54.834Z,5.47
2023-05-12T12:50:25.054Z,8.45
2023-05-12T12:52:53.420Z,5.80
2023-05-12T12:55:21.840Z,7.03
2023-05-12T12:57:49.604Z,10.13
2023-05-12T13:00:18.096Z,7.93
2023-05-12T13:02:45.595Z,8.02
2023-05-12T13:05:13.130Z,8.05
2023-05-12T13:07:40.740Z,8.98
2023-05-12T13:10:09.354Z,8.82
2023-05-12T13:12:36.857Z,11.27
2023-05-12T13:15:04.600Z,6.45
2023-05-12T13:17:33.932Z,8.98
2023-05-12T13:20:02.052Z,6.55
2023-05-12T13:22:29.687Z,7.95
2023-05-12T13:24:58.278Z,19.23
2023-05-12T13:27:25.860Z,7.28
2023-05-12T13:29:53.352Z,8.45
2023-05-12T13:32:21.071Z,8.18
2023-05-12T13:34:49.251Z,8.82
2023-05-12T13:37:16.786Z,8.55
2023-05-12T13:39:44.216Z,9.07
2023-05-12T13:42:11.830Z,9.98
2023-05-12T13:44:39.405Z,12.70
2023-05-12T13:47:07.980Z,15.43
2023-05-12T13:49:36.712Z,16.67
2023-05-12T13:52:04.370Z,10.07
2023-05-12T13:54:32.406Z,12.50
2023-05-12T13:57:00.868Z,10.70
2023-05-12T13:59:28.354Z,12.27
2023-05-12T14:01:55.934Z,12.65
2023-05-12T14:04:23.578Z,10.45
2023-05-12T14:06:51.194Z,14.65
2023-05-12T14:09:19.378Z,13.43
2023-05-12T14:11:46.991Z,16.98
2023-05-12T14:14:14.869Z,13.57
2023-05-12T14:16:42.457Z,19.85
2023-05-12T14:19:09.996Z,15.30
2023-05-12T14:21:37.775Z,21.55
2023-05-12T14:24:05.840Z,18.13
2023-05-12T14:26:33.440Z,18.10
2023-05-12T14:29:01.005Z,23.98
2023-05-12T14:31:28.570Z,19.35
2023-05-12T14:33:56.279Z,20.17
2023-05-12T14:36:23.813Z,22.58
2023-05-12T14:38:51.395Z,21.38
2023-05-12T14:41:18.872Z,20.95
2023-05-12T14:43:46.796Z,30.55
2023-05-12T14:46:14.398Z,25.95
2023-05-12T14:48:42.913Z,26.45
2023-05-12T14:51:10.569Z,27.67
2023-05-12T14:53:38.047Z,25.23
2023-05-12T14:56:06.177Z,25.30
2023-05-12T14:58:33.774Z,24.17
2023-05-12T15:01:03.361Z,24.80
2023-05-12T15:03:30.871Z,31.80
2023-05-12T15:06:06.443Z,26.98
2023-05-12T15:08:34.641Z,30.80
2023-05-12T15:11:02.130Z,28.33
2023-05-12T15:13:29.913Z,29.80
2023-05-12T15:15:57.381Z,26.70
2023-05-12T15:18:24.932Z,27.50
2023-05-12T15:20:52.956Z,28.38
2023-05-12T15:23:20.510Z,28.45
2023-05-12T15:25:48.100Z,26.38
2023-05-12T15:28:15.519Z,29.98
2023-05-12T15:30:43.242Z,25.98
2023-05-12T15:33:10.833Z,27.55
2023-05-12T15:35:40.477Z,27.42
2023-05-12T15:38:08.297Z,27.40
2023-05-12T15:40:37.157Z,32.78
2023-05-12T15:43:05.132Z,34.97
2023-05-12T15:45:32.642Z,30.95
2023-05-12T15:48:00.320Z,31.67
2023-05-12T15:50:27.840Z,27.00
2023-05-12T15:52:55.715Z,31.75
2023-05-12T15:55:23.423Z,29.02
2023-05-12T15:57:51.095Z,29.60
2023-05-12T16:00:19.488Z,30.80
2023-05-12T16:02:47.075Z,27.05
2023-05-12T16:05:14.507Z,30.63
2023-05-12T16:07:42.457Z,32.70
2023-05-12T16:10:10.408Z,28.23
2023-05-12T16:12:37.871Z,28.77
2023-05-12T16:15:05.906Z,29.55
2023-05-12T16:17:33.703Z,29.83
2023-05-12T16:20:02.074Z,29.15
2023-05-12T16:22:30.064Z,33.60
2023-05-12T16:24:57.721Z,31.20
2023-05-12T16:27:25.580Z,33.00
2023-05-12T16:29:53.869Z,30.27
2023-05-12T16:32:21.721Z,30.30
2023-05-12T16:34:49.530Z,32.28
2023-05-12T16:37:17.118Z,29.00
2023-05-12T16:39:44.741Z,32.40
2023-05-12T16:42:12.233Z,31.02
2023-05-12T16:44:39.958Z,28.67
2023-05-12T16:47:08.159Z,25.33
2023-05-12T16:49:35.707Z,32.55
2023-05-12T16:52:03.362Z,28.98
2023-05-12T16:54:33.581Z,27.42
2023-05-12T16:57:02.918Z,27.25
2023-05-12T16:59:32.390Z,30.85
2023-05-12T17:02:00.376Z,29.83
2023-05-12T17:04:28.107Z,26.70
2023-05-12T17:06:55.757Z,28.75
2023-05-12T17:09:23.368Z,30.27
2023-05-12T17:11:50.929Z,31.38
2023-05-12T17:14:19.477Z,28.98
2023-05-12T17:16:47.313Z,31.85
2023-05-12T17:19:15.771Z,30.88
2023-05-12T17:21:43.203Z,31.75
2023-05-12T17:24:10.951Z,30.02
2023-05-12T17:26:38.465Z,29.25
2023-05-12T17:29:06.018Z,29.35
2023-05-12T17:31:33.536Z,30.95
2023-05-12T17:34:01.121Z,34.42
2023-05-12T17:36:29.054Z,36.58
2023-05-12T17:38:56.912Z,29.98
2023-05-12T17:41:25.972Z,32.88
2023-05-12T17:43:54.434Z,37.37
2023-05-12T17:46:22.165Z,32.47
2023-05-12T17:48:49.664Z,28.95
2023-05-12T17:51:17.221Z,27.05
2023-05-12T17:53:44.776Z,30.55
2023-05-12T17:56:12.387Z,34.33
2023-05-12T17:58:39.993Z,33.15
2023-05-12T18:01:07.982Z,34.92
2023-05-12T18:03:36.740Z,36.17
2023-05-12T18:06:05.625Z,36.22
2023-05-12T18:08:33.224Z,38.40
2023-05-12T18:11:01.275Z,37.75
2023-05-12T18:13:28.796Z,42.15
2023-05-12T18:15:56.490Z,32.33
2023-05-12T18:18:24.137Z,35.35
2023-05-12T18:20:51.851Z,40.05
2023-05-12T18:23:19.426Z,37.10
2023-05-12T18:25:47.123Z,34.53
2023-05-12T18:28:15.048Z,46.30
2023-05-12T18:30:42.413Z,35.45
2023-05-12T18:33:10.116Z,38.28
2023-05-12T18:35:37.882Z,37.67
2023-05-12T18:38:05.714Z,37.33
2023-05-12T18:40:33.349Z,37.35
2023-05-12T18:43:00.989Z,37.42
2023-05-12T18:45:28.676Z,40.15
2023-05-12T18:47:56.241Z,37.10
2023-05-12T18:50:23.645Z,34.25
2023-05-12T18:52:51.314Z,34.30
2023-05-12T18:55:19.029Z,43.78
2023-05-12T18:57:46.697Z,41.85
2023-05-12T19:00:14.362Z,46.42
2023-05-12T19:02:42.444Z,36.60
2023-05-12T19:05:10.250Z,41.83
2023-05-12T19:07:37.849Z,33.53
2023-05-12T19:10:05.908Z,42.83
2023-05-12T19:12:33.338Z,32.88
2023-05-12T19:15:00.724Z,33.03
2023-05-12T19:17:28.328Z,32.20
2023-05-12T19:19:55.758Z,33.08
2023-05-12T19:22:24.843Z,40.08
2023-05-12T19:24:52.891Z,36.00
2023-05-12T19:27:20.582Z,38.20
2023-05-12T19:29:49.006Z,33.72
2023-05-12T19:32:16.715Z,33.78
2023-05-12T19:34:44.601Z,37.05
2023-05-12T19:37:12.128Z,32.15
2023-05-12T19:39:39.717Z,32.28
2023-05-12T19:42:07.289Z,29.67
2023-05-12T19:44:34.844Z,33.28
2023-05-12T19:47:04.818Z,38.45
2023-05-12T19:49:34.291Z,40.30
2023-05-12T19:52:03.463Z,34.92
2023-05-12T19:54:30.886Z,37.25
2023-05-12T19:56:58.529Z,34.60
2023-05-12T19:59:26.747Z,40.70
2023-05-12T20:01:54.325Z,33.40
2023-05-12T20:04:22.841Z,39.97
2023-05-12T20:06:51.450Z,35.20
2023-05-12T20:09:20.594Z,34.38
2023-05-12T20:11:48.956Z,38.65
2023-05-12T20:14:16.473Z,31.42
2023-05-12T20:16:44.148Z,33.80
2023-05-12T20:19:11.717Z,31.15
2023-05-12T20:21:41.129Z,30.48
2023-05-12T20:24:09.060Z,31.38
2023-05-12T20:26:36.858Z,33.17
2023-05-12T20:29:04.778Z,31.58
2023-05-12T20:31:32.564Z,33.45
2023-05-12T20:34:00.202Z,28.38
2023-05-12T20:36:27.742Z,39.20
2023-05-12T20:38:55.244Z,34.90
2023-05-12T20:41:22.754Z,35.08
2023-05-12T20:43:50.186Z,33.38
2023-05-12T20:46:17.968Z,35.42
2023-05-12T20:48:45.784Z,37.03
2023-05-12T20:51:13.616Z,37.72
2023-05-12T20:53:42.047Z,34.15
2023-05-12T20:56:10.474Z,41.47
2023-05-12T20:58:38.180Z,29.95
2023-05-12T21:01:05.712Z,36.55
2023-05-12T21:03:34.015Z,31.83
2023-05-12T21:06:02.175Z,36.33
2023-05-12T21:08:29.667Z,38.50
2023-05-12T21:10:58.920Z,32.10
2023-05-12T21:13:27.123Z,36.22
2023-05-12T21:15:54.553Z,29.42
2023-05-12T21:18:21.955Z,38.40
2023-05-12T21:20:49.586Z,44.92
2023-05-12T21:23:17.315Z,27.48
2023-05-12T21:25:44.977Z,33.67
2023-05-12T21:28:12.532Z,35.70
2023-05-12T21:30:39.962Z,40.67
2023-05-12T21:33:07.480Z,36.13
2023-05-12T21:35:35.083Z,37.33
2023-05-12T21:38:02.598Z,40.05
2023-05-12T21:40:30.168Z,32.05
2023-05-12T21:42:57.574Z,36.55
2023-05-12T21:45:25.295Z,36.90
2023-05-12T21:47:53.268Z,39.70
2023-05-12T21:50:21.747Z,31.63
2023-05-12T21:52:50.168Z,36.22
2023-05-12T21:55:17.766Z,36.08
2023-05-12T21:57:45.566Z,37.92
2023-05-12T22:00:14.804Z,31.15
2023-05-12T22:02:43.675Z,30.70
2023-05-12T22:05:11.355Z,30.02
2023-05-12T22:07:38.993Z,28.67
2023-05-12T22:10:07.128Z,36.70
2023-05-12T22:12:34.909Z,31.95
2023-05-12T22:15:02.737Z,30.05
2023-05-12T22:17:31.843Z,37.35
2023-05-12T22:19:59.767Z,29.25
2023-05-12T22:22:27.434Z,33.33
2023-05-12T22:24:57.305Z,31.60
2023-05-12T22:27:24.823Z,29.30
2023-05-12T22:29:52.627Z,31.25
2023-05-12T22:32:20.345Z,33.63
2023-05-12T22:34:47.914Z,31.80
2023-05-12T22:37:15.614Z,40.15
2023-05-12T22:39:43.254Z,30.08
2023-05-12T22:42:10.930Z,29.38
2023-05-12T22:44:38.633Z,30.70
2023-05-12T22:47:06.690Z,39.03
2023-05-12T22:49:34.240Z,33.00
2023-05-12T22:52:01.831Z,32.83
2023-05-12T22:54:29.844Z,30.33
2023-05-12T22:56:57.421Z,29.77
2023-05-12T22:59:24.961Z,26.80
2023-05-12T23:01:52.571Z,29.00
2023-05-12T23:04:20.524Z,29.55
2023-05-12T23:06:48.234Z,36.65
2023-05-12T23:09:16.286Z,32.50
2023-05-12T23:11:43.953Z,30.80
2023-05-12T23:14:11.652Z,30.85
2023-05-12T23:16:39.344Z,27.48
2023-05-12T23:19:07.095Z,30.50
2023-05-12T23:21:34.789Z,34.13
2023-05-12T23:24:02.365Z,37.20
2023-05-12T23:26:30.376Z,29.77
2023-05-12T23:28:57.983Z,34.42
2023-05-12T23:31:25.536Z,30.23
2023-05-12T23:33:53.192Z,28.10
2023-05-12T23:36:20.716Z,31.05
2023-05-12T23:38:52.802Z,31.80
2023-05-12T23:41:22.051Z,26.85
2023-05-12T23:43:49.908Z,34.15
2023-05-12T23:46:17.715Z,38.00
2023-05-12T23:48:45.401Z,35.70
2023-05-12T23:51:13.004Z,35.55
2023-05-12T23:53:40.616Z,25.40
2023-05-12T23:56:08.435Z,30.33
2023-05-12T23:58:36.232Z,28.70
